createdAt,value
2023-12-08T00:02:34.660Z,22.58
2023-12-08T00:07:26.900Z,19.70
2023-12-08T00:12:18.872Z,24.23
2023-12-08T00:17:10.722Z,36.00
2023-12-08T00:22:03.309Z,33.22
2023-12-08T00:26:55.172Z,38.80
2023-12-08T00:31:47.267Z,19.50
2023-12-08T00:36:42.039Z,18.55
2023-12-08T00:41:33.974Z,16.45
2023-12-08T00:46:25.834Z,34.10
2023-12-08T00:51:17.645Z,19.17
2023-12-08T00:56:10.234Z,22.92
2023-12-08T01:01:02.155Z,23.90
2023-12-08T01:05:54.005Z,31.80
2023-12-08T01:10:45.818Z,25.55
2023-12-08T01:15:37.653Z,20.05
2023-12-08T01:20:29.531Z,18.50
2023-12-08T01:25:21.481Z,16.10
2023-12-08T01:30:13.774Z,12.40
2023-12-08T01:35:06.060Z,14.60
2023-12-08T01:39:59.584Z,15.68
2023-12-08T01:44:51.826Z,20.58
2023-12-08T01:49:44.001Z,24.58
2023-12-08T01:54:36.032Z,19.08
2023-12-08T01:59:28.518Z,14.48
2023-12-08T02:04:20.400Z,17.50
2023-12-08T02:09:13.884Z,18.55
2023-12-08T02:14:06.107Z,21.00
2023-12-08T02:18:58.194Z,7.30
2023-12-08T02:23:50.602Z,7.93
2023-12-08T02:28:42.533Z,8.15
2023-12-08T02:33:34.734Z,9.13
2023-12-08T02:38:27.290Z,10.05
2023-12-08T02:43:19.126Z,5.75
2023-12-08T02:48:11.022Z,6.40
2023-12-08T02:53:03.035Z,4.93
2023-12-08T02:57:54.799Z,4.72
2023-12-08T03:02:46.692Z,4.63
2023-12-08T03:07:38.686Z,4.13
2023-12-08T03:12:30.559Z,8.00
2023-12-08T03:17:22.611Z,7.90
2023-12-08T03:22:14.462Z,9.88
2023-12-08T03:27:06.254Z,6.75
2023-12-08T03:31:58.086Z,11.27
2023-12-08T03:36:49.857Z,9.80
2023-12-08T03:41:41.693Z,10.43
2023-12-08T03:46:33.492Z,9.95
2023-12-08T03:51:25.293Z,10.63
2023-12-08T03:56:17.137Z,14.63
2023-12-08T04:01:09.812Z,14.23
2023-12-08T04:06:02.897Z,13.52
2023-12-08T04:10:54.866Z,14.55
2023-12-08T04:15:46.677Z,12.60
2023-12-08T04:20:38.533Z,12.75
2023-12-08T04:25:30.301Z,8.98
2023-12-08T04:30:22.115Z,9.20
2023-12-08T04:35:14.135Z,11.38
2023-12-08T04:40:06.373Z,10.30
2023-12-08T04:44:58.236Z,14.07
2023-12-08T04:49:50.265Z,14.30
2023-12-08T04:54:42.134Z,12.00
2023-12-08T04:59:33.932Z,13.52
2023-12-08T05:04:25.722Z,14.27
2023-12-08T05:09:18.319Z,16.58
2023-12-08T05:14:10.142Z,16.45
2023-12-08T05:19:02.061Z,17.23
2023-12-08T05:23:54.004Z,18.23
2023-12-08T05:28:45.877Z,16.02
2023-12-08T05:33:38.324Z,30.67
2023-12-08T05:38:30.330Z,22.50
2023-12-08T05:43:23.141Z,18.73
2023-12-08T05:48:15.109Z,19.13
2023-12-08T05:53:06.966Z,24.27
2023-12-08T05:57:58.742Z,19.60
2023-12-08T06:02:50.664Z,20.55
2023-12-08T06:07:42.811Z,19.75
2023-12-08T06:12:37.908Z,23.38
2023-12-08T06:17:29.996Z,27.10
2023-12-08T06:22:22.049Z,21.25
2023-12-08T06:27:14.021Z,22.08
2023-12-08T06:32:06.637Z,17.65
2023-12-08T06:36:58.481Z,53.47
2023-12-08T06:41:50.285Z,23.83
2023-12-08T06:46:43.539Z,24.70
2023-12-08T06:51:36.658Z,23.10
2023-12-08T06:56:28.462Z,19.63
2023-12-08T07:01:20.307Z,19.75
2023-12-08T07:06:12.317Z,19.50
2023-12-08T07:11:04.430Z,20.80
2023-12-08T07:15:56.297Z,21.05
2023-12-08T07:20:48.182Z,19.13
2023-12-08T07:25:40.154Z,18.98
2023-12-08T07:30:32.153Z,27.23
2023-12-08T07:35:24.021Z,21.92
2023-12-08T07:40:17.987Z,18.17
2023-12-08T07:45:11.537Z,18.55
2023-12-08T07:50:03.690Z,20.10
2023-12-08T07:54:55.937Z,23.15
2023-12-08T07:59:49.253Z,26.77
2023-12-08T08:04:42.465Z,22.08
2023-12-08T08:09:34.346Z,24.25
2023-12-08T08:14:26.225Z,23.88
2023-12-08T08:19:18.175Z,21.50
2023-12-08T08:24:10.299Z,22.45
2023-12-08T08:29:02.223Z,21.63
2023-12-08T08:33:54.226Z,26.17
2023-12-08T08:38:46.228Z,27.08
2023-12-08T08:43:38.253Z,25.17
2023-12-08T08:48:30.248Z,28.25
2023-12-08T08:53:22.395Z,30.08
2023-12-08T08:58:14.201Z,28.83
2023-12-08T09:03:06.030Z,28.10
2023-12-08T09:07:58.199Z,26.33
2023-12-08T09:12:49.955Z,28.52
2023-12-08T09:17:42.623Z,31.90
2023-12-08T09:22:35.311Z,32.97
2023-12-08T09:27:27.920Z,26.70
2023-12-08T09:32:20.475Z,34.92
2023-12-08T09:37:26.806Z,35.38
2023-12-08T09:42:36.788Z,31.65
2023-12-08T09:47:30.734Z,28.98
2023-12-08T09:52:23.984Z,29.55
2023-12-08T09:57:17.176Z,32.75
2023-12-08T10:02:09.075Z,27.85
2023-12-08T10:07:03.300Z,33.60
2023-12-08T10:11:55.172Z,30.15
2023-12-08T10:16:48.174Z,29.17
2023-12-08T10:21:40.319Z,31.85
2023-12-08T10:26:33.072Z,30.05
2023-12-08T10:31:27.271Z,31.38
2023-12-08T10:36:22.479Z,40.10
2023-12-08T10:41:23.740Z,28.63
2023-12-08T10:46:17.036Z,28.60
2023-12-08T10:51:15.043Z,28.55
2023-12-08T10:56:18.225Z,28.42
2023-12-08T11:01:14.279Z,32.63
2023-12-08T11:06:39.783Z,43.75
2023-12-08T11:11:33.398Z,56.05
2023-12-08T11:16:33.730Z,57.08
2023-12-08T11:21:25.961Z,34.30
2023-12-08T11:26:38.368Z,50.80
2023-12-08T11:32:05.883Z,46.60
2023-12-08T11:37:00.641Z,41.58
2023-12-08T11:41:53.461Z,42.15
2023-12-08T11:46:45.297Z,40.25
2023-12-08T11:51:37.923Z,36.65
2023-12-08T11:56:46.943Z,32.70
2023-12-08T12:01:42.729Z,34.45
2023-12-08T12:06:34.776Z,36.42
2023-12-08T12:11:36.153Z,37.95
2023-12-08T12:16:28.724Z,39.10
2023-12-08T12:21:20.723Z,38.13
2023-12-08T12:26:14.754Z,37.38
2023-12-08T12:31:06.590Z,32.83
2023-12-08T12:35:58.401Z,31.73
2023-12-08T12:40:54.521Z,31.38
2023-12-08T12:45:46.516Z,34.25
2023-12-08T12:50:53.222Z,39.67
2023-12-08T12:55:47.041Z,40.33
2023-12-08T13:00:40.554Z,39.13
2023-12-08T13:05:32.854Z,41.08
2023-12-08T13:10:24.757Z,36.22
2023-12-08T13:15:18.974Z,44.80
2023-12-08T13:20:11.577Z,41.22
2023-12-08T13:25:03.623Z,38.03
2023-12-08T13:29:55.493Z,39.47
2023-12-08T13:34:47.428Z,42.00
2023-12-08T13:39:39.292Z,35.67
2023-12-08T13:44:31.231Z,35.38
2023-12-08T13:49:23.368Z,37.75
2023-12-08T13:54:15.278Z,39.00
2023-12-08T13:59:07.211Z,41.70
2023-12-08T14:03:59.320Z,41.13
2023-12-08T14:08:54.498Z,48.78
2023-12-08T14:13:46.469Z,50.78
2023-12-08T14:18:38.542Z,44.90
2023-12-08T14:23:30.445Z,45.65
2023-12-08T14:28:22.843Z,42.03
2023-12-08T14:33:15.607Z,45.20
2023-12-08T14:38:07.604Z,45.10
2023-12-08T14:42:59.514Z,46.85
2023-12-08T14:47:51.421Z,37.75
2023-12-08T14:52:43.300Z,37.40
2023-12-08T14:57:35.132Z,40.20
2023-12-08T15:02:26.936Z,42.42
2023-12-08T15:07:18.715Z,50.13
2023-12-08T15:12:10.908Z,41.60
2023-12-08T15:17:02.916Z,42.42
2023-12-08T15:22:00.662Z,45.33
2023-12-08T15:26:52.493Z,55.08
2023-12-08T15:31:44.409Z,47.75
2023-12-08T15:36:36.197Z,42.42
2023-12-08T15:41:27.991Z,41.10
2023-12-08T15:46:19.766Z,45.95
2023-12-08T15:51:14.780Z,49.88
2023-12-08T15:56:07.091Z,54.95
2023-12-08T16:00:59.156Z,48.13
2023-12-08T16:05:51.063Z,43.17
2023-12-08T16:10:43.121Z,63.80
2023-12-08T16:15:35.099Z,57.63
2023-12-08T16:20:27.030Z,54.28
2023-12-08T16:25:18.782Z,54.97
2023-12-08T16:30:11.131Z,50.92
2023-12-08T16:35:04.023Z,45.97
2023-12-08T16:39:55.981Z,44.95
2023-12-08T16:44:48.635Z,50.70
2023-12-08T16:49:40.815Z,48.33
2023-12-08T16:54:32.837Z,44.28
2023-12-08T16:59:24.735Z,43.50
2023-12-08T17:04:19.456Z,40.42
2023-12-08T17:09:11.325Z,40.22
2023-12-08T17:14:03.144Z,42.55
2023-12-08T17:18:55.098Z,39.72
2023-12-08T17:23:47.117Z,39.58
2023-12-08T17:28:38.967Z,37.50
2023-12-08T17:33:30.933Z,41.42
2023-12-08T17:38:23.172Z,45.50
2023-12-08T17:43:14.933Z,49.03
2023-12-08T17:48:07.677Z,37.80
2023-12-08T17:52:59.665Z,33.42
2023-12-08T17:57:51.507Z,38.75
2023-12-08T18:02:43.707Z,43.92
2023-12-08T18:07:36.114Z,45.75
2023-12-08T18:12:28.739Z,42.08
2023-12-08T18:17:21.577Z,49.08
2023-12-08T18:22:13.384Z,42.92
2023-12-08T18:27:05.636Z,45.55
2023-12-08T18:31:58.377Z,46.95
2023-12-08T18:36:50.820Z,80.22
2023-12-08T18:41:42.629Z,46.35
2023-12-08T18:46:34.584Z,48.22
2023-12-08T18:51:29.039Z,38.80
2023-12-08T18:56:21.783Z,40.00
2023-12-08T19:01:13.648Z,37.88
2023-12-08T19:06:05.765Z,42.38
2023-12-08T19:10:57.625Z,46.70
2023-12-08T19:15:49.519Z,38.95
2023-12-08T19:20:45.067Z,41.75
2023-12-08T19:25:36.934Z,35.72
2023-12-08T19:30:28.866Z,41.20
2023-12-08T19:35:21.828Z,37.60
2023-12-08T19:40:13.746Z,39.75
2023-12-08T19:45:06.609Z,42.63
2023-12-08T19:49:58.465Z,41.00
2023-12-08T19:54:50.352Z,37.25
2023-12-08T19:59:43.226Z,36.85
2023-12-08T20:04:34.977Z,36.67
2023-12-08T20:09:26.794Z,35.03
2023-12-08T20:14:18.610Z,39.45
2023-12-08T20:19:11.006Z,39.83
2023-12-08T20:24:03.274Z,40.30
2023-12-08T20:28:55.997Z,42.95
2023-12-08T20:33:48.647Z,38.88
2023-12-08T20:38:41.179Z,31.63
2023-12-08T20:43:32.981Z,33.60
2023-12-08T20:48:25.797Z,28.15
2023-12-08T20:53:17.827Z,31.10
2023-12-08T20:58:09.647Z,29.77
2023-12-08T21:03:01.511Z,29.63
2023-12-08T21:07:53.622Z,27.60
2023-12-08T21:12:45.416Z,39.92
2023-12-08T21:17:39.110Z,41.58
2023-12-08T21:22:31.005Z,38.75
2023-12-08T21:27:23.440Z,42.60
2023-12-08T21:32:15.313Z,42.28
2023-12-08T21:37:07.219Z,44.33
2023-12-08T21:42:04.569Z,41.03
2023-12-08T21:46:56.473Z,44.47
2023-12-08T21:51:48.229Z,44.97
2023-12-08T21:56:40.059Z,41.50
2023-12-08T22:01:31.882Z,47.63
2023-12-08T22:06:24.265Z,37.80
2023-12-08T22:11:16.075Z,32.63
2023-12-08T22:16:07.969Z,44.60
2023-12-08T22:20:59.824Z,37.40
2023-12-08T22:25:51.687Z,35.88
2023-12-08T22:30:43.450Z,37.35
2023-12-08T22:35:35.251Z,36.88
2023-12-08T22:40:27.070Z,28.52
2023-12-08T22:45:19.315Z,28.13
2023-12-08T22:50:11.289Z,24.75
2023-12-08T22:55:03.417Z,28.25
2023-12-08T22:59:55.223Z,29.48
2023-12-08T23:04:47.075Z,28.20
2023-12-08T23:09:39.081Z,25.48
2023-12-08T23:14:30.921Z,24.48
2023-12-08T23:19:23.019Z,23.88
2023-12-08T23:24:14.868Z,21.15
2023-12-08T23:29:06.702Z,26.98
2023-12-08T23:33:58.677Z,23.83
2023-12-08T23:38:50.712Z,20.15
2023-12-08T23:43:42.641Z,22.40
2023-12-08T23:48:34.704Z,20.15
2023-12-08T23:53:27.029Z,19.15
2023-12-08T23:58:18.883Z,20.63
